Time;durP1;ratioP1;P1;durP2;ratioP2;P2;SDS_P1;SDS_P2;PMS_P1;PMS_P2;Temp;Humidity;BMP_temperature;BMP_pressure;BME280_temperature;BME280_humidity;BME280_pressure;Samples;Min_cycle;Max_cycle;Signal;HPM_P1;HPM_P2
2022/10/10 00:01:09;;;;;;;0.57;0.10;;;;;;;;;;4165775;28;20386;-42
2022/10/10 00:03:10;;;;;;;0.00;0.00;;;;;;;;;;4165595;28;20057;-42
2022/10/10 00:05:11;;;;;;;0.20;0.20;;;;;;;;;;4164981;28;20115;-42
2022/10/10 00:07:12;;;;;;;0.20;0.10;;;;;;;;;;4164549;28;20057;-41
2022/10/10 00:09:13;;;;;;;0.30;0.10;;;;;;;;;;4165576;28;20072;-42
2022/10/10 00:11:17;;;;;;;0.10;0.10;;;;;;;;;;4163922;28;20501;-42
2022/10/10 00:13:18;;;;;;;0.10;0.10;;;;;;;;;;4165592;28;20569;-42
2022/10/10 00:15:20;;;;;;;0.10;0.10;;;;;;;;;;4165427;28;20516;-42
2022/10/10 00:17:21;;;;;;;0.30;0.10;;;;;;;;;;4165406;28;20416;-42
2022/10/10 00:19:22;;;;;;;0.10;0.00;;;;;;;;;;4165270;28;20045;-42
2022/10/10 00:21:24;;;;;;;0.05;0.05;;;;;;;;;;4152227;28;20111;-42
2022/10/10 00:23:25;;;;;;;0.15;0.05;;;;;;;;;;4165571;28;20061;-42
2022/10/10 00:25:27;;;;;;;0.05;0.00;;;;;;;;;;4165289;28;20104;-42
2022/10/10 00:27:28;;;;;;;0.30;0.00;;;;;;;;;;4165487;28;20054;-42
2022/10/10 00:29:29;;;;;;;0.28;0.10;;;;;;;;;;4165056;28;20076;-44
2022/10/10 00:31:30;;;;;;;0.05;0.03;;;;;;;;;;4165258;28;20057;-42
2022/10/10 00:33:31;;;;;;;0.13;0.10;;;;;;;;;;4164016;28;20060;-42
2022/10/10 00:35:33;;;;;;;0.10;0.10;;;;;;;;;;4164354;28;20466;-42
2022/10/10 00:37:34;;;;;;;0.20;0.10;;;;;;;;;;4164931;28;20049;-42
2022/10/10 00:39:35;;;;;;;0.00;0.00;;;;;;;;;;4165312;28;20057;-42
2022/10/10 00:41:37;;;;;;;0.05;0.05;;;;;;;;;;4163975;28;20053;-42
2022/10/10 00:43:39;;;;;;;0.30;0.10;;;;;;;;;;4165160;28;20054;-42
2022/10/10 00:45:42;;;;;;;0.10;0.08;;;;;;;;;;4164808;28;20053;-40
2022/10/10 00:47:43;;;;;;;0.00;0.00;;;;;;;;;;4164018;28;20107;-42
2022/10/10 00:49:45;;;;;;;0.52;0.10;;;;;;;;;;4148181;28;20058;-42
2022/10/10 00:51:48;;;;;;;0.20;0.10;;;;;;;;;;4157283;28;20057;-42
2022/10/10 00:53:51;;;;;;;0.00;0.00;;;;;;;;;;4161361;28;20057;-42
2022/10/10 00:55:53;;;;;;;0.13;0.10;;;;;;;;;;4164674;28;20057;-42
2022/10/10 00:57:54;;;;;;;0.55;0.10;;;;;;;;;;4165046;28;20111;-42
2022/10/10 00:59:56;;;;;;;0.00;0.00;;;;;;;;;;4164922;28;20049;-42
2022/10/10 01:01:57;;;;;;;0.10;0.10;;;;;;;;;;4163758;28;20054;-42
2022/10/10 01:04:00;;;;;;;0.00;0.00;;;;;;;;;;4164099;28;20057;-42
2022/10/10 01:06:02;;;;;;;0.30;0.10;;;;;;;;;;4164525;28;20053;-42
2022/10/10 01:08:04;;;;;;;0.28;0.10;;;;;;;;;;4164843;28;20079;-45
2022/10/10 01:10:12;;;;;;;0.75;0.20;;;;;;;;;;4163387;28;20088;-42
2022/10/10 01:12:37;;;;;;;0.30;0.00;;;;;;;;;;4164086;28;20060;-42
2022/10/10 01:14:47;;;;;;;0.00;0.00;;;;;;;;;;4163451;28;20083;-42
2022/10/10 01:16:49;;;;;;;0.32;0.10;;;;;;;;;;4163733;28;20053;-42
2022/10/10 01:18:53;;;;;;;0.17;0.10;;;;;;;;;;4164134;28;20058;-42
2022/10/10 01:21:34;;;;;;;0.05;0.00;;;;;;;;;;4164968;28;20046;-42
2022/10/10 01:23:48;;;;;;;0.10;0.10;;;;;;;;;;4163027;28;20064;-42
2022/10/10 01:26:01;;;;;;;0.22;0.10;;;;;;;;;;4163506;28;20111;-42
2022/10/10 01:28:19;;;;;;;0.10;0.10;;;;;;;;;;4163223;28;20065;-42
2022/10/10 01:30:22;;;;;;;0.20;0.10;;;;;;;;;;4164027;28;20594;-42
2022/10/10 01:32:37;;;;;;;0.30;0.10;;;;;;;;;;4164497;28;20060;-42
2022/10/10 01:35:00;;;;;;;0.00;0.00;;;;;;;;;;4164155;28;20053;-42
2022/10/10 01:37:46;;;;;;;0.00;0.00;;;;;;;;;;4152013;28;20053;-42
2022/10/10 01:39:59;;;;;;;0.10;0.10;;;;;;;;;;4145546;28;20391;-42
2022/10/10 01:42:05;;;;;;;0.20;0.20;;;;;;;;;;4117582;28;20129;-42
2022/10/10 01:44:07;;;;;;;0.68;0.10;;;;;;;;;;4148260;28;20136;-42
2022/10/10 01:46:10;;;;;;;0.20;0.10;;;;;;;;;;4163862;28;20555;-42
2022/10/10 01:48:12;;;;;;;1.13;0.10;;;;;;;;;;4163821;28;20054;-44
2022/10/10 01:50:17;;;;;;;0.10;0.10;;;;;;;;;;4163420;28;20056;-42
2022/10/10 01:52:39;;;;;;;0.00;0.00;;;;;;;;;;4163988;28;20084;-42
2022/10/10 01:55:17;;;;;;;0.35;0.00;;;;;;;;;;4163709;28;20076;-42
2022/10/10 01:57:51;;;;;;;0.22;0.08;;;;;;;;;;4164154;28;20076;-42
2022/10/10 02:00:00;;;;;;;0.10;0.10;;;;;;;;;;4128898;28;20391;-42
2022/10/10 02:02:15;;;;;;;0.60;0.10;;;;;;;;;;4164059;28;20455;-42
2022/10/10 02:04:31;;;;;;;0.00;0.00;;;;;;;;;;4145689;28;20101;-42
2022/10/10 02:06:38;;;;;;;0.57;0.10;;;;;;;;;;4162306;28;20436;-41
2022/10/10 02:08:44;;;;;;;0.22;0.10;;;;;;;;;;4162462;28;20513;-42
2022/10/10 02:10:50;;;;;;;0.13;0.13;;;;;;;;;;4157040;28;20456;-42
2022/10/10 02:12:51;;;;;;;0.32;0.10;;;;;;;;;;4163459;28;20081;-42
2022/10/10 02:14:56;;;;;;;0.10;0.10;;;;;;;;;;4162229;28;20045;-42
2022/10/10 02:16:59;;;;;;;0.03;0.03;;;;;;;;;;4163548;28;20421;-42
2022/10/10 02:19:02;;;;;;;0.28;0.10;;;;;;;;;;4161947;28;20061;-42
2022/10/10 02:21:05;;;;;;;0.00;0.00;;;;;;;;;;4145687;28;20104;-42
2022/10/10 02:23:09;;;;;;;0.00;0.00;;;;;;;;;;4162260;28;20058;-42
2022/10/10 02:25:11;;;;;;;0.10;0.10;;;;;;;;;;4162334;28;20054;-42
2022/10/10 02:27:18;;;;;;;0.17;0.08;;;;;;;;;;4163442;28;20111;-42
2022/10/10 02:29:25;;;;;;;0.20;0.20;;;;;;;;;;4161761;28;20057;-42
2022/10/10 02:31:33;;;;;;;0.10;0.10;;;;;;;;;;4146038;28;20456;-42
2022/10/10 02:33:45;;;;;;;0.10;0.10;;;;;;;;;;4162298;28;20057;-42
2022/10/10 02:35:48;;;;;;;0.00;0.00;;;;;;;;;;4161763;28;20057;-42
2022/10/10 02:37:50;;;;;;;0.10;0.10;;;;;;;;;;4149434;28;20525;-42
2022/10/10 02:39:56;;;;;;;0.15;0.10;;;;;;;;;;4152817;28;20107;-42
2022/10/10 02:41:58;;;;;;;0.20;0.10;;;;;;;;;;4161919;28;20056;-42
2022/10/10 02:43:59;;;;;;;0.00;0.00;;;;;;;;;;4161525;28;20584;-41
2022/10/10 02:46:01;;;;;;;0.20;0.10;;;;;;;;;;4163158;28;20053;-42
2022/10/10 02:48:03;;;;;;;0.13;0.10;;;;;;;;;;4155067;28;20050;-42
2022/10/10 02:50:04;;;;;;;0.10;0.00;;;;;;;;;;4154856;28;20092;-42
2022/10/10 02:52:06;;;;;;;0.00;0.00;;;;;;;;;;4160137;28;20120;-42
2022/10/10 02:54:07;;;;;;;0.08;0.08;;;;;;;;;;4161334;28;20508;-42
2022/10/10 02:56:09;;;;;;;0.00;0.00;;;;;;;;;;4151392;28;20622;-42
2022/10/10 02:58:10;;;;;;;0.10;0.10;;;;;;;;;;4155341;28;20096;-42
2022/10/10 03:00:12;;;;;;;0.10;0.10;;;;;;;;;;4161703;28;20133;-44
2022/10/10 03:02:13;;;;;;;0.10;0.10;;;;;;;;;;4162804;28;20058;-42
2022/10/10 03:04:15;;;;;;;0.50;0.10;;;;;;;;;;4162671;28;20061;-42
2022/10/10 03:06:17;;;;;;;0.10;0.10;;;;;;;;;;4162420;28;20057;-42
2022/10/10 03:08:18;;;;;;;0.28;0.10;;;;;;;;;;4162636;28;20152;-42
2022/10/10 03:10:19;;;;;;;0.20;0.10;;;;;;;;;;4162264;28;20103;-42
2022/10/10 03:12:20;;;;;;;0.22;0.10;;;;;;;;;;4161410;28;20057;-42
2022/10/10 03:14:21;;;;;;;0.20;0.10;;;;;;;;;;4161566;28;20505;-42
2022/10/10 03:16:23;;;;;;;0.10;0.08;;;;;;;;;;4162830;28;20061;-42
2022/10/10 03:18:24;;;;;;;0.20;0.10;;;;;;;;;;4162741;28;20618;-42
2022/10/10 03:20:26;;;;;;;0.05;0.00;;;;;;;;;;4131656;28;20054;-42
2022/10/10 03:22:27;;;;;;;0.10;0.10;;;;;;;;;;4162743;28;20554;-42
2022/10/10 03:24:28;;;;;;;0.25;0.10;;;;;;;;;;4162589;28;20053;-42
2022/10/10 03:26:29;;;;;;;0.30;0.10;;;;;;;;;;4161639;28;20512;-42
2022/10/10 03:28:30;;;;;;;0.03;0.03;;;;;;;;;;4161130;28;20472;-42
2022/10/10 03:30:31;;;;;;;0.10;0.00;;;;;;;;;;4162538;28;20053;-42
2022/10/10 03:32:32;;;;;;;0.57;0.10;;;;;;;;;;4162625;28;20439;-42
2022/10/10 03:34:34;;;;;;;0.15;0.03;;;;;;;;;;4162176;28;20088;-42
2022/10/10 03:36:35;;;;;;;0.10;0.10;;;;;;;;;;4162402;28;20061;-41
2022/10/10 03:38:40;;;;;;;0.03;0.03;;;;;;;;;;4162815;28;20054;-42
2022/10/10 03:40:42;;;;;;;0.00;0.00;;;;;;;;;;4162725;28;20057;-42
2022/10/10 03:42:44;;;;;;;0.00;0.00;;;;;;;;;;4162693;28;20084;-42
2022/10/10 03:44:45;;;;;;;0.10;0.10;;;;;;;;;;4162310;28;20061;-42
2022/10/10 03:46:46;;;;;;;0.20;0.10;;;;;;;;;;4162612;28;20096;-42
2022/10/10 03:48:48;;;;;;;0.15;0.10;;;;;;;;;;4162096;28;20057;-42
2022/10/10 03:50:50;;;;;;;0.85;0.00;;;;;;;;;;4162685;28;20408;-42
2022/10/10 03:52:51;;;;;;;0.00;0.00;;;;;;;;;;4162967;28;20053;-42
2022/10/10 03:54:52;;;;;;;0.10;0.10;;;;;;;;;;4162477;28;20057;-42
2022/10/10 03:56:54;;;;;;;0.20;0.10;;;;;;;;;;4161707;28;20053;-42
2022/10/10 03:58:59;;;;;;;0.20;0.10;;;;;;;;;;4162586;28;20319;-41
2022/10/10 04:01:01;;;;;;;0.10;0.10;;;;;;;;;;4162652;28;20046;-42
2022/10/10 04:03:05;;;;;;;0.82;0.15;;;;;;;;;;4160715;28;20413;-42
2022/10/10 04:05:07;;;;;;;0.17;0.08;;;;;;;;;;4160519;28;20111;-42
2022/10/10 04:07:08;;;;;;;0.10;0.10;;;;;;;;;;4162756;28;20061;-42
2022/10/10 04:09:09;;;;;;;0.10;0.10;;;;;;;;;;4162855;28;20068;-42
2022/10/10 04:11:10;;;;;;;0.08;0.00;;;;;;;;;;4165525;28;20056;-42
2022/10/10 04:13:12;;;;;;;0.03;0.00;;;;;;;;;;4164982;28;20516;-42
2022/10/10 04:15:13;;;;;;;0.65;0.20;;;;;;;;;;4165622;28;20107;-42
2022/10/10 04:17:14;;;;;;;0.85;0.10;;;;;;;;;;4164139;28;20400;-42
2022/10/10 04:19:16;;;;;;;0.10;0.10;;;;;;;;;;4164953;28;20505;-42
2022/10/10 04:21:18;;;;;;;0.28;0.20;;;;;;;;;;4165366;28;20045;-42
2022/10/10 04:23:19;;;;;;;0.17;0.10;;;;;;;;;;4165309;28;20058;-42
2022/10/10 04:25:21;;;;;;;0.30;0.10;;;;;;;;;;4164228;28;20062;-42
2022/10/10 04:27:22;;;;;;;0.60;0.10;;;;;;;;;;4165396;28;20053;-42
2022/10/10 04:29:23;;;;;;;0.20;0.10;;;;;;;;;;4164820;28;20057;-42
2022/10/10 04:31:24;;;;;;;0.17;0.17;;;;;;;;;;4147735;28;20053;-42
2022/10/10 04:33:25;;;;;;;0.10;0.10;;;;;;;;;;4164126;28;20057;-42
2022/10/10 04:35:27;;;;;;;0.08;0.03;;;;;;;;;;4160649;28;20057;-42
2022/10/10 04:37:28;;;;;;;0.20;0.10;;;;;;;;;;4163707;28;20080;-42
2022/10/10 04:39:29;;;;;;;0.10;0.10;;;;;;;;;;4153496;28;20068;-42
2022/10/10 04:41:30;;;;;;;0.47;0.20;;;;;;;;;;4165416;28;20054;-42
2022/10/10 04:43:32;;;;;;;0.10;0.10;;;;;;;;;;4165188;28;20064;-42
2022/10/10 04:45:33;;;;;;;0.25;0.10;;;;;;;;;;4163805;28;20386;-41
2022/10/10 04:47:34;;;;;;;0.10;0.10;;;;;;;;;;4151556;28;20050;-41
2022/10/10 04:49:35;;;;;;;0.40;0.20;;;;;;;;;;4164694;28;20115;-41
2022/10/10 04:51:37;;;;;;;0.52;0.20;;;;;;;;;;4163669;28;20790;-42
2022/10/10 04:53:38;;;;;;;0.22;0.13;;;;;;;;;;4164841;28;20053;-42
2022/10/10 04:55:40;;;;;;;0.45;0.20;;;;;;;;;;4164742;28;20054;-42
2022/10/10 04:57:41;;;;;;;0.30;0.13;;;;;;;;;;4165034;28;20111;-42
2022/10/10 04:59:42;;;;;;;0.50;0.20;;;;;;;;;;4163503;28;20413;-42
2022/10/10 05:01:44;;;;;;;0.47;0.20;;;;;;;;;;4148007;28;20057;-42
2022/10/10 05:03:45;;;;;;;0.90;0.30;;;;;;;;;;4160947;28;20444;-42
2022/10/10 05:05:47;;;;;;;0.73;0.20;;;;;;;;;;4162713;28;20119;-42
2022/10/10 05:07:48;;;;;;;0.82;0.22;;;;;;;;;;4161311;28;20057;-42
2022/10/10 05:09:49;;;;;;;0.40;0.20;;;;;;;;;;4162557;28;20505;-42
2022/10/10 05:11:51;;;;;;;0.22;0.20;;;;;;;;;;4162330;28;20053;-42
2022/10/10 05:13:52;;;;;;;0.22;0.10;;;;;;;;;;4162412;28;20096;-42
2022/10/10 05:15:53;;;;;;;0.80;0.10;;;;;;;;;;4162443;28;20061;-42
2022/10/10 05:17:55;;;;;;;0.73;0.10;;;;;;;;;;4162506;28;20092;-41
2022/10/10 05:19:56;;;;;;;0.88;0.40;;;;;;;;;;4161620;28;20069;-42
2022/10/10 05:21:57;;;;;;;0.20;0.10;;;;;;;;;;4148942;28;20512;-42
2022/10/10 05:23:58;;;;;;;0.10;0.10;;;;;;;;;;4162308;28;20481;-41
2022/10/10 05:26:00;;;;;;;0.30;0.10;;;;;;;;;;4158735;28;20099;-41
2022/10/10 05:28:01;;;;;;;0.30;0.20;;;;;;;;;;4160943;28;20060;-41
2022/10/10 05:30:03;;;;;;;0.65;0.20;;;;;;;;;;4157311;28;20096;-41
2022/10/10 05:32:05;;;;;;;0.40;0.10;;;;;;;;;;4146614;28;20117;-41
2022/10/10 05:34:11;;;;;;;0.93;0.20;;;;;;;;;;4150655;28;20060;-40
2022/10/10 05:36:13;;;;;;;0.13;0.10;;;;;;;;;;4153174;28;20080;-42
2022/10/10 05:38:14;;;;;;;0.38;0.15;;;;;;;;;;4158168;28;20057;-41
2022/10/10 05:40:16;;;;;;;0.40;0.17;;;;;;;;;;4151772;28;20459;-43
2022/10/10 05:42:17;;;;;;;0.98;0.20;;;;;;;;;;4155298;28;20107;-43
2022/10/10 05:44:18;;;;;;;0.30;0.20;;;;;;;;;;4156873;28;20057;-40
2022/10/10 05:46:23;;;;;;;0.40;0.20;;;;;;;;;;4152510;28;20555;-43
2022/10/10 05:48:24;;;;;;;0.55;0.20;;;;;;;;;;4154175;28;20089;-41
2022/10/10 05:50:31;;;;;;;1.08;0.50;;;;;;;;;;4153931;28;20068;-43
2022/10/10 05:52:34;;;;;;;0.35;0.20;;;;;;;;;;4155544;28;20057;-41
2022/10/10 05:54:36;;;;;;;0.35;0.22;;;;;;;;;;4151254;28;20053;-43
2022/10/10 05:56:37;;;;;;;0.75;0.35;;;;;;;;;;4144683;28;20061;-41
2022/10/10 05:58:38;;;;;;;0.52;0.30;;;;;;;;;;4141938;28;20186;-43
2022/10/10 06:00:41;;;;;;;1.52;0.32;;;;;;;;;;4144159;28;20099;-42
2022/10/10 06:02:42;;;;;;;1.20;0.32;;;;;;;;;;4146653;28;20045;-43
2022/10/10 06:04:44;;;;;;;0.77;0.32;;;;;;;;;;4150615;28;20064;-43
2022/10/10 06:06:45;;;;;;;0.60;0.17;;;;;;;;;;4148275;28;20065;-42
2022/10/10 06:08:46;;;;;;;0.28;0.17;;;;;;;;;;4149436;28;20607;-40
2022/10/10 06:10:48;;;;;;;1.17;0.30;;;;;;;;;;4148398;28;20046;-42
2022/10/10 06:12:49;;;;;;;0.60;0.20;;;;;;;;;;4143224;28;20064;-43
2022/10/10 06:14:51;;;;;;;0.40;0.20;;;;;;;;;;4143263;28;20088;-42
2022/10/10 06:16:52;;;;;;;0.82;0.32;;;;;;;;;;4144702;28;20068;-37
2022/10/10 06:18:55;;;;;;;0.88;0.30;;;;;;;;;;4145662;28;20056;-38
2022/10/10 06:21:04;;;;;;;2.97;0.30;;;;;;;;;;4139348;28;20095;-41
2022/10/10 06:23:06;;;;;;;0.38;0.17;;;;;;;;;;4135519;28;20143;-41
2022/10/10 06:25:08;;;;;;;1.02;0.28;;;;;;;;;;4128748;28;20123;-42
2022/10/10 06:27:09;;;;;;;0.90;0.30;;;;;;;;;;4127908;28;20153;-41
2022/10/10 06:29:11;;;;;;;3.70;0.50;;;;;;;;;;4133948;28;20054;-42
2022/10/10 06:31:14;;;;;;;0.85;0.20;;;;;;;;;;4129635;28;20046;-41
2022/10/10 06:33:17;;;;;;;0.52;0.20;;;;;;;;;;4132682;28;20066;-42
2022/10/10 06:35:19;;;;;;;0.52;0.28;;;;;;;;;;4133223;28;20080;-42
2022/10/10 06:37:20;;;;;;;1.17;0.50;;;;;;;;;;4134457;28;20053;-42
2022/10/10 06:39:22;;;;;;;1.85;0.60;;;;;;;;;;4137007;28;20406;-41
2022/10/10 06:41:23;;;;;;;0.77;0.30;;;;;;;;;;4133240;28;20143;-41
2022/10/10 06:43:25;;;;;;;0.63;0.25;;;;;;;;;;4129570;28;20056;-42
2022/10/10 06:45:26;;;;;;;1.65;0.25;;;;;;;;;;4128679;28;20053;-41
2022/10/10 06:47:27;;;;;;;0.60;0.30;;;;;;;;;;4136990;28;20061;-41
2022/10/10 06:49:29;;;;;;;0.52;0.30;;;;;;;;;;4133489;28;20072;-42
2022/10/10 06:51:30;;;;;;;0.88;0.50;;;;;;;;;;4135947;28;20061;-41
2022/10/10 06:53:32;;;;;;;1.95;0.40;;;;;;;;;;4135557;28;20688;-41
2022/10/10 06:55:33;;;;;;;1.85;0.60;;;;;;;;;;4136601;28;20057;-41
2022/10/10 06:57:34;;;;;;;0.60;0.30;;;;;;;;;;4134407;28;20053;-43
2022/10/10 06:59:35;;;;;;;1.75;0.40;;;;;;;;;;4123289;28;20703;-41
2022/10/10 07:01:37;;;;;;;2.85;0.30;;;;;;;;;;4113584;28;20523;-43
2022/10/10 07:03:38;;;;;;;1.65;0.20;;;;;;;;;;4112335;28;20159;-42
2022/10/10 07:05:40;;;;;;;0.65;0.30;;;;;;;;;;4099592;28;20064;-42
2022/10/10 07:07:42;;;;;;;3.38;0.30;;;;;;;;;;4112885;28;20057;-41
2022/10/10 07:09:43;;;;;;;1.92;0.15;;;;;;;;;;4101513;28;20700;-41
2022/10/10 07:11:46;;;;;;;0.32;0.28;;;;;;;;;;4119298;28;20572;-39
2022/10/10 07:13:49;;;;;;;0.35;0.15;;;;;;;;;;4118642;28;20057;-40
2022/10/10 07:15:52;;;;;;;1.10;0.22;;;;;;;;;;4107269;28;20738;-38
2022/10/10 07:17:57;;;;;;;0.73;0.20;;;;;;;;;;4115807;28;20066;-41
2022/10/10 07:19:58;;;;;;;0.95;0.30;;;;;;;;;;4126113;28;20072;-39
2022/10/10 07:22:00;;;;;;;2.92;0.43;;;;;;;;;;4113581;28;20380;-41
2022/10/10 07:24:01;;;;;;;0.52;0.20;;;;;;;;;;4113591;28;20232;-40
2022/10/10 07:26:05;;;;;;;1.60;0.30;;;;;;;;;;4130454;28;20281;-40
2022/10/10 07:28:07;;;;;;;1.30;0.22;;;;;;;;;;4126674;28;20811;-40
2022/10/10 07:30:09;;;;;;;0.32;0.30;;;;;;;;;;4118167;28;20713;-41
2022/10/10 07:32:10;;;;;;;0.75;0.20;;;;;;;;;;4118052;28;20085;-41
2022/10/10 07:34:12;;;;;;;2.50;0.30;;;;;;;;;;4116452;28;20134;-41
2022/10/10 07:36:13;;;;;;;1.95;0.28;;;;;;;;;;4110040;28;21480;-41
2022/10/10 07:38:14;;;;;;;1.33;0.55;;;;;;;;;;4120963;28;20061;-41
2022/10/10 07:40:16;;;;;;;0.73;0.30;;;;;;;;;;4125842;28;20050;-40
2022/10/10 07:42:17;;;;;;;1.13;0.28;;;;;;;;;;4123674;28;20057;-40
2022/10/10 07:44:19;;;;;;;0.20;0.20;;;;;;;;;;4128909;28;20053;-40
2022/10/10 07:46:20;;;;;;;0.68;0.35;;;;;;;;;;4117505;28;20749;-40
2022/10/10 07:48:22;;;;;;;0.45;0.20;;;;;;;;;;4124334;28;20061;-41
2022/10/10 07:50:24;;;;;;;1.00;0.30;;;;;;;;;;4123330;28;20435;-40
2022/10/10 07:52:25;;;;;;;1.60;0.20;;;;;;;;;;4124482;28;20482;-41
2022/10/10 07:54:28;;;;;;;2.38;0.20;;;;;;;;;;4131791;28;20061;-41
2022/10/10 07:56:30;;;;;;;0.47;0.38;;;;;;;;;;4122519;28;20591;-42
2022/10/10 07:58:33;;;;;;;3.03;0.30;;;;;;;;;;4111956;28;20132;-42
2022/10/10 08:00:35;;;;;;;0.90;0.35;;;;;;;;;;4113074;28;20871;-42
2022/10/10 08:02:37;;;;;;;2.15;0.38;;;;;;;;;;4114113;28;20480;-41
2022/10/10 08:04:39;;;;;;;3.58;0.30;;;;;;;;;;4121397;28;20108;-41
2022/10/10 08:06:40;;;;;;;2.28;0.30;;;;;;;;;;4125216;28;20120;-42
2022/10/10 08:08:43;;;;;;;3.90;0.38;;;;;;;;;;4130281;28;20077;-42
2022/10/10 08:10:45;;;;;;;3.92;0.50;;;;;;;;;;4134047;28;20829;-42
2022/10/10 08:12:46;;;;;;;1.38;0.30;;;;;;;;;;4134273;28;20435;-41
2022/10/10 08:14:48;;;;;;;0.93;0.35;;;;;;;;;;4127318;28;20060;-42
2022/10/10 08:16:49;;;;;;;0.60;0.40;;;;;;;;;;4123594;28;20114;-42
2022/10/10 08:18:51;;;;;;;1.90;0.13;;;;;;;;;;4119350;28;21058;-42
2022/10/10 08:21:00;;;;;;;0.28;0.10;;;;;;;;;;4133202;28;20053;-42
2022/10/10 08:23:01;;;;;;;1.75;0.35;;;;;;;;;;4143969;28;20633;-41
2022/10/10 08:25:03;;;;;;;1.08;0.40;;;;;;;;;;4126734;28;20066;-42
2022/10/10 08:27:04;;;;;;;2.13;0.40;;;;;;;;;;4111072;28;20148;-43
2022/10/10 08:29:05;;;;;;;6.18;0.32;;;;;;;;;;4122152;28;20053;-42
2022/10/10 08:31:25;;;;;;;3.47;0.82;;;;;;;;;;4120958;28;20135;-41
2022/10/10 08:33:26;;;;;;;1.42;0.20;;;;;;;;;;4123127;28;20155;-41
2022/10/10 08:35:28;;;;;;;0.60;0.30;;;;;;;;;;4131153;28;20133;-42
2022/10/10 08:37:29;;;;;;;0.57;0.20;;;;;;;;;;4127864;28;20071;-41
2022/10/10 08:39:31;;;;;;;0.85;0.25;;;;;;;;;;4124322;28;20164;-41
2022/10/10 08:41:38;;;;;;;1.48;0.30;;;;;;;;;;4122729;28;20049;-42
2022/10/10 08:43:44;;;;;;;0.88;0.30;;;;;;;;;;4123636;28;20053;-42
2022/10/10 08:45:46;;;;;;;1.38;0.28;;;;;;;;;;4124772;28;20057;-40
2022/10/10 08:47:54;;;;;;;0.57;0.20;;;;;;;;;;4131181;28;22061;-41
2022/10/10 08:49:58;;;;;;;0.68;0.38;;;;;;;;;;4118910;28;20149;-41
2022/10/10 08:52:37;;;;;;;1.55;0.32;;;;;;;;;;4115080;28;20676;-40
2022/10/10 08:54:40;;;;;;;3.30;0.52;;;;;;;;;;4103319;28;20566;-41
2022/10/10 08:56:41;;;;;;;0.50;0.20;;;;;;;;;;4112104;28;20456;-40
2022/10/10 08:58:46;;;;;;;3.67;0.65;;;;;;;;;;4093404;28;20187;-41
2022/10/10 09:00:50;;;;;;;0.98;0.30;;;;;;;;;;4101663;28;20147;-41
2022/10/10 09:02:55;;;;;;;0.55;0.38;;;;;;;;;;4103043;28;20057;-38
2022/10/10 09:04:56;;;;;;;3.28;0.30;;;;;;;;;;4121752;28;20143;-41
2022/10/10 09:07:23;;;;;;;1.00;0.28;;;;;;;;;;4124176;28;20348;-40
2022/10/10 09:09:35;;;;;;;2.92;0.30;;;;;;;;;;4123949;28;20068;-42
2022/10/10 09:11:46;;;;;;;0.52;0.30;;;;;;;;;;4111356;28;20085;-43
2022/10/10 09:14:13;;;;;;;0.60;0.40;;;;;;;;;;4122199;28;20063;-39
2022/10/10 09:16:42;;;;;;;1.42;0.28;;;;;;;;;;4113877;28;20063;-41
2022/10/10 09:19:09;;;;;;;1.35;0.13;;;;;;;;;;4128420;28;20065;-42
2022/10/10 09:21:16;;;;;;;1.50;0.28;;;;;;;;;;4134913;28;20424;-40
2022/10/10 09:23:31;;;;;;;0.55;0.30;;;;;;;;;;4120911;28;20053;-41
2022/10/10 09:25:37;;;;;;;2.80;0.35;;;;;;;;;;4132863;28;20445;-40
2022/10/10 09:27:40;;;;;;;2.97;0.30;;;;;;;;;;4137731;28;20049;-41
2022/10/10 09:30:04;;;;;;;2.42;0.30;;;;;;;;;;4122754;28;21391;-40
2022/10/10 09:32:13;;;;;;;1.63;0.40;;;;;;;;;;4121835;28;20053;-40
2022/10/10 09:34:23;;;;;;;2.40;0.30;;;;;;;;;;4113770;28;20058;-40
2022/10/10 09:36:27;;;;;;;2.10;0.30;;;;;;;;;;4130444;28;20683;-40
2022/10/10 09:38:47;;;;;;;0.45;0.28;;;;;;;;;;4124493;28;20080;-40
2022/10/10 09:40:53;;;;;;;2.50;0.30;;;;;;;;;;4126211;28;20053;-41
2022/10/10 09:42:55;;;;;;;2.10;0.30;;;;;;;;;;4128585;28;20061;-41
2022/10/10 09:44:56;;;;;;;0.30;0.20;;;;;;;;;;4126935;28;20061;-41
2022/10/10 09:46:59;;;;;;;2.05;0.45;;;;;;;;;;4127491;28;20203;-41
2022/10/10 09:49:00;;;;;;;0.70;0.20;;;;;;;;;;4129137;28;20099;-41
2022/10/10 09:51:04;;;;;;;3.50;0.30;;;;;;;;;;4122920;28;20053;-40
2022/10/10 09:53:05;;;;;;;1.55;0.30;;;;;;;;;;4129520;28;20634;-41
2022/10/10 09:55:19;;;;;;;1.55;0.30;;;;;;;;;;4125861;28;20057;-42
2022/10/10 09:57:21;;;;;;;1.10;0.30;;;;;;;;;;4122125;28;20785;-40
2022/10/10 09:59:46;;;;;;;0.52;0.25;;;;;;;;;;4118201;28;20057;-40
2022/10/10 10:02:01;;;;;;;2.67;0.40;;;;;;;;;;4117520;28;20062;-40
2022/10/10 10:04:14;;;;;;;1.75;0.40;;;;;;;;;;4126241;28;20375;-42
2022/10/10 10:06:16;;;;;;;1.35;0.35;;;;;;;;;;4124390;28;20517;-41
2022/10/10 10:08:19;;;;;;;1.95;0.30;;;;;;;;;;4127513;28;20096;-41
2022/10/10 10:10:23;;;;;;;0.20;0.10;;;;;;;;;;4128597;28;20442;-40
2022/10/10 10:12:39;;;;;;;1.02;0.20;;;;;;;;;;4128682;28;20049;-41
2022/10/10 10:14:45;;;;;;;0.57;0.20;;;;;;;;;;4103038;28;20054;-41
2022/10/10 10:16:47;;;;;;;0.77;0.20;;;;;;;;;;4139075;28;20053;-40
2022/10/10 10:18:48;;;;;;;0.75;0.20;;;;;;;;;;4141818;28;20483;-41
2022/10/10 10:21:12;;;;;;;1.77;0.20;;;;;;;;;;4142175;28;20434;-41
2022/10/10 10:23:25;;;;;;;0.35;0.22;;;;;;;;;;4140618;28;20724;-40
2022/10/10 10:25:30;;;;;;;0.10;0.10;;;;;;;;;;4141589;28;20045;-41
2022/10/10 10:27:32;;;;;;;1.00;0.22;;;;;;;;;;4132957;28;20057;-41
2022/10/10 10:29:33;;;;;;;0.70;0.30;;;;;;;;;;4132240;28;21138;-41
2022/10/10 10:31:53;;;;;;;1.13;0.20;;;;;;;;;;4140880;28;20061;-41
2022/10/10 10:34:12;;;;;;;0.50;0.20;;;;;;;;;;4140461;28;20057;-43
2022/10/10 10:36:30;;;;;;;0.82;0.35;;;;;;;;;;4140558;28;20484;-41
2022/10/10 10:38:32;;;;;;;0.88;0.20;;;;;;;;;;4135314;28;20489;-41
2022/10/10 10:40:44;;;;;;;1.85;0.35;;;;;;;;;;4128408;28;20054;-41
2022/10/10 10:43:24;;;;;;;2.28;0.22;;;;;;;;;;4133328;28;20167;-41
2022/10/10 10:45:34;;;;;;;;;;;;;;;;;;4113750;28;20230;-41
2022/10/10 10:47:45;;;;;;;3.10;0.68;;;;;;;;;;4136525;28;19929;-41
2022/10/10 10:49:54;;;;;;;1.00;0.38;;;;;;;;;;4139366;28;20049;-40
2022/10/10 10:52:29;;;;;;;0.75;0.20;;;;;;;;;;4142396;28;20061;-42
2022/10/10 10:54:39;;;;;;;0.50;0.20;;;;;;;;;;4132440;28;20061;-41
2022/10/10 10:56:48;;;;;;;1.40;0.30;;;;;;;;;;4122306;28;20057;-40
2022/10/10 10:59:01;;;;;;;0.32;0.20;;;;;;;;;;4104686;28;20057;-41
2022/10/10 11:01:11;;;;;;;0.98;0.50;;;;;;;;;;4117786;28;20390;-42
2022/10/10 11:03:50;;;;;;;0.35;0.20;;;;;;;;;;4126374;28;20068;-43
2022/10/10 11:06:26;;;;;;;1.13;0.40;;;;;;;;;;4128089;28;20076;-41
2022/10/10 11:08:42;;;;;;;0.30;0.20;;;;;;;;;;4131901;28;20069;-41
2022/10/10 11:11:17;;;;;;;1.58;0.45;;;;;;;;;;4125395;28;20058;-42
2022/10/10 11:13:23;;;;;;;2.95;0.40;;;;;;;;;;4116753;28;20057;-41
2022/10/10 11:15:31;;;;;;;0.75;0.30;;;;;;;;;;4120131;28;20061;-42
2022/10/10 11:17:39;;;;;;;0.40;0.20;;;;;;;;;;4117212;28;20061;-40
2022/10/10 11:19:44;;;;;;;0.70;0.20;;;;;;;;;;4123446;28;20559;-40
2022/10/10 11:21:50;;;;;;;1.65;0.43;;;;;;;;;;4118361;28;20061;-41
2022/10/10 11:24:00;;;;;;;1.65;0.30;;;;;;;;;;4122507;28;20720;-42
2022/10/10 11:26:05;;;;;;;0.40;0.20;;;;;;;;;;4124771;28;20386;-42
2022/10/10 11:28:14;;;;;;;4.65;0.40;;;;;;;;;;4117756;28;20119;-42
2022/10/10 11:30:20;;;;;;;1.63;0.30;;;;;;;;;;4126323;28;20053;-43
2022/10/10 11:32:28;;;;;;;0.60;0.20;;;;;;;;;;4103491;28;20058;-41
2022/10/10 11:34:34;;;;;;;0.75;0.40;;;;;;;;;;4121579;28;20058;-42
2022/10/10 11:36:38;;;;;;;2.20;0.35;;;;;;;;;;4104434;28;20505;-41
2022/10/10 11:38:47;;;;;;;0.90;0.10;;;;;;;;;;4128420;28;20065;-42
2022/10/10 11:41:12;;;;;;;0.95;0.47;;;;;;;;;;4114547;28;20061;-41
2022/10/10 11:43:48;;;;;;;2.70;0.47;;;;;;;;;;4129386;28;20646;-41
2022/10/10 11:45:56;;;;;;;0.82;0.30;;;;;;;;;;4119788;28;20532;-41
2022/10/10 11:48:09;;;;;;;3.00;0.45;;;;;;;;;;4124353;28;20053;-44
2022/10/10 11:50:26;;;;;;;2.42;0.30;;;;;;;;;;4130569;28;20053;-41
2022/10/10 11:52:53;;;;;;;1.23;0.20;;;;;;;;;;4127223;28;20599;-43
2022/10/10 11:55:00;;;;;;;0.93;0.30;;;;;;;;;;4123135;28;20501;-42
2022/10/10 11:57:07;;;;;;;2.90;0.40;;;;;;;;;;4120131;28;20064;-45
2022/10/10 11:59:15;;;;;;;1.00;0.20;;;;;;;;;;4124074;28;20127;-43
2022/10/10 12:01:26;;;;;;;0.52;0.25;;;;;;;;;;4109957;28;21590;-42
2022/10/10 12:03:27;;;;;;;0.38;0.20;;;;;;;;;;4127863;28;20061;-43
2022/10/10 12:05:29;;;;;;;1.20;0.32;;;;;;;;;;4126600;28;20505;-41
2022/10/10 12:07:55;;;;;;;0.52;0.22;;;;;;;;;;4122394;28;20502;-40
2022/10/10 12:10:08;;;;;;;0.90;0.25;;;;;;;;;;4116046;28;20092;-41
2022/10/10 12:12:13;;;;;;;1.08;0.30;;;;;;;;;;4129885;28;22281;-42
2022/10/10 12:14:17;;;;;;;2.95;0.30;;;;;;;;;;4124597;28;20103;-40
2022/10/10 12:16:20;;;;;;;0.90;0.28;;;;;;;;;;4126522;28;21010;-40
2022/10/10 12:18:41;;;;;;;0.52;0.22;;;;;;;;;;4131335;28;20057;-40
2022/10/10 12:20:42;;;;;;;1.15;0.20;;;;;;;;;;4131461;28;20599;-41
2022/10/10 12:22:43;;;;;;;0.10;0.10;;;;;;;;;;4127881;28;20187;-40
2022/10/10 12:25:03;;;;;;;0.90;0.30;;;;;;;;;;4119990;28;20061;-41
2022/10/10 12:27:05;;;;;;;0.65;0.25;;;;;;;;;;4122420;28;20056;-42
2022/10/10 12:29:09;;;;;;;3.28;0.55;;;;;;;;;;4126984;28;20766;-40
2022/10/10 12:31:11;;;;;;;1.63;0.40;;;;;;;;;;4127171;28;20054;-41
2022/10/10 12:33:40;;;;;;;0.40;0.40;;;;;;;;;;4120446;28;20729;-40